createdAt,value
2022-09-12T00:01:14.252Z,17.76
2022-09-12T00:03:43.090Z,17.66
2022-09-12T00:06:13.850Z,17.61
2022-09-12T00:08:44.510Z,17.70
2022-09-12T00:11:13.784Z,17.67
2022-09-12T00:13:43.173Z,17.57
2022-09-12T00:16:18.750Z,17.55
2022-09-12T00:18:47.768Z,17.80
2022-09-12T00:21:16.627Z,17.76
2022-09-12T00:23:46.859Z,17.70
2022-09-12T00:26:15.291Z,17.47
2022-09-12T00:28:43.534Z,17.43
2022-09-12T00:31:14.371Z,17.50
2022-09-12T00:33:42.968Z,17.63
2022-09-12T00:36:14.852Z,17.66
2022-09-12T00:38:43.094Z,17.61
2022-09-12T00:41:18.254Z,17.70
2022-09-12T00:43:47.853Z,17.73
2022-09-12T00:46:26.195Z,17.59
2022-09-12T00:48:58.055Z,17.61
2022-09-12T00:51:26.880Z,17.68
2022-09-12T00:53:56.416Z,17.67
2022-09-12T00:56:26.408Z,17.61
2022-09-12T00:58:58.896Z,17.64
2022-09-12T01:01:31.738Z,17.64
2022-09-12T01:04:00.972Z,17.67
2022-09-12T01:06:34.134Z,17.68
2022-09-12T01:09:04.147Z,17.75
2022-09-12T01:11:37.033Z,17.68
2022-09-12T01:14:07.552Z,17.74
2022-09-12T01:16:37.814Z,17.51
2022-09-12T01:19:23.492Z,17.55
2022-09-12T01:22:03.178Z,17.69
2022-09-12T01:24:44.613Z,17.69
2022-09-12T01:27:41.407Z,17.69
2022-09-12T01:30:48.118Z,17.62
2022-09-12T01:33:32.802Z,17.71
2022-09-12T01:36:27.067Z,17.66
2022-09-12T01:39:01.456Z,17.60
2022-09-12T01:41:35.378Z,17.68
2022-09-12T01:44:12.994Z,17.49
2022-09-12T01:46:46.611Z,17.52
2022-09-12T01:49:21.519Z,17.69
2022-09-12T01:51:57.824Z,17.55
2022-09-12T01:54:31.830Z,17.46
2022-09-12T01:57:05.174Z,17.43
2022-09-12T01:59:36.935Z,17.48
2022-09-12T02:02:09.942Z,17.60
2022-09-12T02:04:48.743Z,17.55
2022-09-12T02:07:21.398Z,17.47
2022-09-12T02:09:55.614Z,17.41
2022-09-12T02:12:30.816Z,17.49
2022-09-12T02:15:03.370Z,17.48
2022-09-12T02:17:38.957Z,17.29
2022-09-12T02:20:26.008Z,17.52
2022-09-12T02:23:08.281Z,17.43
2022-09-12T02:25:41.395Z,17.59
2022-09-12T02:28:13.589Z,17.63
2022-09-12T02:30:46.753Z,17.61
2022-09-12T02:33:21.835Z,17.62
2022-09-12T02:35:58.410Z,17.67
2022-09-12T02:38:31.992Z,17.68
2022-09-12T02:41:00.102Z,17.53
2022-09-12T02:43:28.118Z,17.64
2022-09-12T02:45:56.267Z,17.74
2022-09-12T02:48:29.132Z,17.66
2022-09-12T02:50:58.704Z,17.74
2022-09-12T02:53:27.441Z,17.65
2022-09-12T02:55:55.818Z,17.73
2022-09-12T02:58:30.672Z,17.83
2022-09-12T03:01:06.632Z,17.62
2022-09-12T03:03:55.268Z,17.66
2022-09-12T03:06:32.719Z,17.64
2022-09-12T03:09:09.940Z,17.63
2022-09-12T03:11:52.093Z,17.41
2022-09-12T03:14:34.069Z,17.59
2022-09-12T03:17:11.204Z,17.61
2022-09-12T03:19:52.261Z,17.70
2022-09-12T03:22:29.806Z,17.74
2022-09-12T03:25:06.792Z,17.69
2022-09-12T03:27:37.380Z,17.77
2022-09-12T03:30:07.026Z,17.85
2022-09-12T03:32:42.729Z,17.91
2022-09-12T03:35:11.905Z,17.79
2022-09-12T03:37:41.745Z,17.70
2022-09-12T03:40:11.824Z,17.57
2022-09-12T03:42:40.114Z,17.56
2022-09-12T03:45:10.013Z,17.65
2022-09-12T03:47:38.086Z,17.69
2022-09-12T03:50:07.277Z,17.59
2022-09-12T03:52:35.283Z,17.66
2022-09-12T03:55:05.118Z,17.63
2022-09-12T03:57:33.126Z,17.86
2022-09-12T04:00:02.016Z,17.62
2022-09-12T04:02:40.565Z,17.73
2022-09-12T04:05:09.100Z,17.74
2022-09-12T04:07:37.157Z,17.83
2022-09-12T04:10:07.521Z,17.66
2022-09-12T04:12:35.915Z,17.69
2022-09-12T04:15:04.021Z,17.80
2022-09-12T04:17:32.018Z,17.54
2022-09-12T04:20:00.097Z,17.36
2022-09-12T04:22:29.893Z,17.53
2022-09-12T04:24:57.859Z,17.66
2022-09-12T04:27:27.400Z,17.72
2022-09-12T04:29:59.139Z,17.59
2022-09-12T04:32:27.230Z,17.40
2022-09-12T04:34:55.210Z,17.64
2022-09-12T04:37:24.244Z,17.64
2022-09-12T04:39:56.040Z,17.45
2022-09-12T04:42:26.559Z,17.38
2022-09-12T04:44:55.983Z,17.54
2022-09-12T04:47:24.158Z,17.42
2022-09-12T04:49:52.491Z,17.66
2022-09-12T04:52:20.928Z,17.48
2022-09-12T04:54:48.888Z,17.45
2022-09-12T04:57:16.933Z,17.61
2022-09-12T04:59:47.807Z,17.68
2022-09-12T05:02:17.263Z,17.58
2022-09-12T05:04:46.899Z,17.67
2022-09-12T05:07:15.001Z,17.68
2022-09-12T05:09:43.744Z,17.70
2022-09-12T05:12:11.715Z,17.62
2022-09-12T05:14:40.587Z,17.54
2022-09-12T05:17:08.945Z,17.54
2022-09-12T05:19:39.171Z,17.46
2022-09-12T05:22:07.161Z,17.61
2022-09-12T05:24:35.184Z,17.71
2022-09-12T05:27:04.757Z,17.55
2022-09-12T05:29:32.859Z,17.43
2022-09-12T05:32:00.880Z,17.43
2022-09-12T05:34:28.971Z,17.30
2022-09-12T05:36:58.307Z,17.31
2022-09-12T05:39:27.807Z,17.37
2022-09-12T05:41:56.402Z,17.13
2022-09-12T05:44:24.920Z,17.42
2022-09-12T05:46:53.671Z,17.46
2022-09-12T05:49:22.629Z,17.56
2022-09-12T05:51:51.636Z,17.63
2022-09-12T05:54:21.335Z,17.71
2022-09-12T05:56:50.032Z,17.49
2022-09-12T05:59:22.041Z,17.31
2022-09-12T06:01:50.683Z,17.07
2022-09-12T06:04:18.795Z,17.36
2022-09-12T06:06:48.694Z,17.40
2022-09-12T06:09:17.932Z,17.35
2022-09-12T06:11:47.750Z,17.55
2022-09-12T06:14:17.584Z,17.61
2022-09-12T06:16:45.574Z,17.60
2022-09-12T06:19:16.172Z,17.72
2022-09-12T06:21:44.737Z,17.54
2022-09-12T06:24:12.886Z,17.63
2022-09-12T06:26:40.992Z,17.69
2022-09-12T06:29:13.383Z,17.53
2022-09-12T06:31:43.175Z,17.51
2022-09-12T06:34:15.149Z,17.69
2022-09-12T06:36:45.399Z,17.84
2022-09-12T06:39:16.207Z,17.72
2022-09-12T06:41:44.645Z,17.77
2022-09-12T06:44:16.760Z,17.81
2022-09-12T06:46:45.334Z,17.79
2022-09-12T06:49:13.790Z,17.91
2022-09-12T06:51:43.308Z,17.91
2022-09-12T06:54:13.935Z,17.85
2022-09-12T06:56:42.217Z,17.80
2022-09-12T06:59:10.312Z,17.95
2022-09-12T07:01:42.480Z,17.86
2022-09-12T07:04:11.745Z,17.96
2022-09-12T07:06:41.840Z,17.90
2022-09-12T07:09:12.743Z,17.74
2022-09-12T07:11:42.872Z,17.90
2022-09-12T07:14:14.064Z,17.84
2022-09-12T07:16:43.741Z,18.00
2022-09-12T07:19:12.140Z,17.95
2022-09-12T07:21:41.012Z,18.00
2022-09-12T07:24:10.963Z,18.00
2022-09-12T07:26:40.500Z,17.93
2022-09-12T07:29:35.470Z,18.16
2022-09-12T07:32:01.339Z,18.12
2022-09-12T07:34:29.316Z,18.10
2022-09-12T07:36:57.256Z,18.12
2022-09-12T07:39:25.275Z,18.25
2022-09-12T07:41:55.511Z,17.86
2022-09-12T07:44:23.611Z,17.92
2022-09-12T07:46:52.335Z,18.09
2022-09-12T07:49:21.669Z,18.13
2022-09-12T07:51:49.854Z,18.11
2022-09-12T07:54:17.898Z,18.17
2022-09-12T07:56:45.879Z,17.95
2022-09-12T07:59:18.922Z,18.17
2022-09-12T08:01:58.241Z,18.44
2022-09-12T08:04:27.676Z,18.21
2022-09-12T08:06:55.662Z,18.11
2022-09-12T08:09:26.703Z,18.19
2022-09-12T08:11:54.728Z,17.96
2022-09-12T08:14:22.693Z,18.22
2022-09-12T08:16:50.708Z,18.25
2022-09-12T08:19:18.649Z,18.35
2022-09-12T08:21:48.060Z,18.22
2022-09-12T08:24:16.109Z,18.18
2022-09-12T08:26:44.147Z,18.34
2022-09-12T08:29:12.545Z,18.17
2022-09-12T08:31:42.499Z,18.40
2022-09-12T08:34:10.791Z,18.36
2022-09-12T08:36:38.798Z,18.46
2022-09-12T08:39:08.981Z,18.28
2022-09-12T08:41:40.762Z,18.23
2022-09-12T08:44:29.213Z,18.47
2022-09-12T08:47:23.556Z,18.50
2022-09-12T08:50:03.607Z,18.51
2022-09-12T08:52:39.369Z,18.47
2022-09-12T08:55:24.740Z,18.60
2022-09-12T08:57:54.536Z,18.02
2022-09-12T09:00:23.233Z,18.14
2022-09-12T09:03:11.599Z,17.94
2022-09-12T09:05:50.101Z,18.26
2022-09-12T09:08:45.487Z,18.58
2022-09-12T09:11:27.304Z,18.53
2022-09-12T09:14:22.255Z,18.45
2022-09-12T09:16:53.295Z,18.69
2022-09-12T09:19:25.698Z,17.81
2022-09-12T09:21:59.885Z,18.37
2022-09-12T09:24:34.417Z,18.65
2022-09-12T09:27:23.495Z,18.43
2022-09-12T09:29:57.118Z,18.49
2022-09-12T09:32:29.281Z,18.72
2022-09-12T09:34:57.505Z,18.67
2022-09-12T09:37:36.541Z,18.60
2022-09-12T09:40:15.680Z,18.41
2022-09-12T09:42:53.986Z,18.30
2022-09-12T09:45:25.172Z,18.50
2022-09-12T09:47:58.408Z,18.36
2022-09-12T09:50:26.537Z,18.17
2022-09-12T09:52:57.003Z,18.44
2022-09-12T09:55:31.496Z,18.78
2022-09-12T09:58:00.848Z,18.42
2022-09-12T10:00:34.087Z,18.44
2022-09-12T10:05:50.611Z,18.65
2022-09-12T10:08:24.034Z,18.73
2022-09-12T10:10:57.435Z,18.80
2022-09-12T10:13:34.143Z,18.57
2022-09-12T10:16:04.138Z,18.69
2022-09-12T10:18:42.234Z,18.61
2022-09-12T10:21:21.212Z,18.68
2022-09-12T10:23:53.972Z,18.54
2022-09-12T10:26:22.777Z,18.69
2022-09-12T10:28:54.572Z,18.43
2022-09-12T10:31:29.180Z,18.50
2022-09-12T10:34:00.932Z,18.56
2022-09-12T10:36:38.516Z,18.31
2022-09-12T10:39:07.965Z,18.70
2022-09-12T10:41:39.315Z,18.69
2022-09-12T10:44:15.875Z,18.65
2022-09-12T10:46:43.965Z,18.71
2022-09-12T10:49:25.272Z,18.70
2022-09-12T10:51:54.993Z,18.41
2022-09-12T10:54:26.073Z,18.31
2022-09-12T10:57:09.562Z,18.58
2022-09-12T11:00:05.264Z,18.52
2022-09-12T11:02:44.389Z,18.73
2022-09-12T11:05:22.825Z,18.76
2022-09-12T11:07:57.515Z,18.92
2022-09-12T11:10:43.769Z,18.94
2022-09-12T11:13:31.189Z,18.87
2022-09-12T11:16:22.969Z,18.83
2022-09-12T11:19:23.516Z,18.84
2022-09-12T11:22:11.752Z,18.52
2022-09-12T11:25:00.198Z,18.89
2022-09-12T11:27:48.513Z,18.87
2022-09-12T11:30:18.749Z,18.59
2022-09-12T11:33:10.399Z,18.74
2022-09-12T11:35:51.864Z,18.68
2022-09-12T11:38:50.851Z,18.91
2022-09-12T11:41:24.693Z,18.52
2022-09-12T11:43:59.554Z,18.91
2022-09-12T11:46:36.205Z,19.14
2022-09-12T11:49:28.491Z,19.18
2022-09-12T11:52:01.517Z,19.01
2022-09-12T11:54:36.186Z,19.25
2022-09-12T11:57:12.457Z,19.22
2022-09-12T11:59:47.427Z,19.25
2022-09-12T12:02:23.238Z,19.04
2022-09-12T12:05:04.914Z,19.07
2022-09-12T12:07:45.603Z,18.45
2022-09-12T12:10:26.307Z,19.09
2022-09-12T12:12:56.396Z,19.08
2022-09-12T12:15:26.988Z,18.93
2022-09-12T12:18:03.699Z,18.97
2022-09-12T12:20:33.536Z,19.28
2022-09-12T12:23:02.071Z,19.09
2022-09-12T12:25:42.957Z,19.25
2022-09-12T12:28:10.988Z,19.30
2022-09-12T12:31:03.676Z,19.15
2022-09-12T12:34:02.090Z,19.05
2022-09-12T12:36:38.516Z,18.80
2022-09-12T12:39:45.877Z,18.56
2022-09-12T12:42:50.537Z,19.04
2022-09-12T12:46:01.594Z,19.04
2022-09-12T12:48:45.431Z,18.75
2022-09-12T12:51:27.345Z,19.14
2022-09-12T12:53:57.057Z,19.06
2022-09-12T12:56:30.731Z,19.09
2022-09-12T12:59:02.361Z,19.15
2022-09-12T13:01:31.846Z,18.96
2022-09-12T13:04:03.788Z,19.02
2022-09-12T13:06:35.386Z,18.76
2022-09-12T13:09:08.771Z,18.80
2022-09-12T13:11:39.581Z,19.09
2022-09-12T13:14:28.413Z,19.09
2022-09-12T13:17:00.159Z,19.07
2022-09-12T13:19:31.936Z,19.12
2022-09-12T13:22:02.795Z,18.96
2022-09-12T13:24:32.298Z,18.86
2022-09-12T13:27:00.351Z,18.84
2022-09-12T13:29:29.336Z,18.56
2022-09-12T13:31:59.391Z,18.26
2022-09-12T13:34:30.412Z,18.84
2022-09-12T13:37:22.156Z,18.91
2022-09-12T13:40:00.902Z,18.85
2022-09-12T13:42:42.652Z,18.74
2022-09-12T13:45:15.510Z,18.51
2022-09-12T13:47:45.636Z,18.74
2022-09-12T13:50:19.057Z,18.88
2022-09-12T13:52:51.637Z,18.63
2022-09-12T13:55:33.770Z,18.69
2022-09-12T13:58:03.463Z,18.88
2022-09-12T14:00:33.229Z,19.08
2022-09-12T14:03:19.730Z,19.07
2022-09-12T14:05:57.897Z,19.08
2022-09-12T14:08:27.009Z,19.08
2022-09-12T14:10:56.432Z,19.08
2022-09-12T14:13:28.248Z,18.42
2022-09-12T14:15:57.515Z,18.51
2022-09-12T14:18:28.547Z,18.77
2022-09-12T14:21:00.908Z,18.94
2022-09-12T14:23:31.164Z,18.97
2022-09-12T14:26:05.061Z,18.65
2022-09-12T14:28:34.403Z,18.72
2022-09-12T14:31:05.861Z,18.73
2022-09-12T14:33:46.935Z,18.47
2022-09-12T14:36:22.791Z,17.87
2022-09-12T14:38:53.451Z,18.51
2022-09-12T14:41:30.815Z,18.70
2022-09-12T14:44:01.655Z,18.88
2022-09-12T14:46:34.565Z,18.71
2022-09-12T14:49:09.191Z,18.94
2022-09-12T14:51:40.576Z,19.06
2022-09-12T14:54:37.253Z,18.78
2022-09-12T14:57:32.259Z,18.34
2022-09-12T15:00:17.857Z,18.57
2022-09-12T15:02:45.989Z,18.30
2022-09-12T15:05:23.766Z,18.56
2022-09-12T15:07:57.882Z,18.62
2022-09-12T15:10:31.086Z,18.63
2022-09-12T15:13:21.935Z,18.82
2022-09-12T15:15:52.189Z,18.25
2022-09-12T15:18:21.385Z,18.41
2022-09-12T15:20:52.166Z,18.55
2022-09-12T15:23:28.268Z,18.73
2022-09-12T15:25:56.638Z,18.00
2022-09-12T15:28:26.893Z,18.57
2022-09-12T15:30:57.767Z,18.51
2022-09-12T15:33:26.583Z,18.35
2022-09-12T15:35:54.589Z,18.00
2022-09-12T15:38:26.382Z,18.02
2022-09-12T15:41:01.097Z,18.31
2022-09-12T15:43:31.745Z,18.44
2022-09-12T15:46:07.081Z,18.10
2022-09-12T15:48:37.016Z,18.17
2022-09-12T15:51:07.720Z,18.49
2022-09-12T15:53:35.918Z,18.42
2022-09-12T15:56:06.663Z,18.56
2022-09-12T15:58:36.432Z,18.59
2022-09-12T16:01:05.521Z,18.60
2022-09-12T16:03:33.535Z,18.70
2022-09-12T16:06:03.583Z,18.47
2022-09-12T16:08:33.004Z,18.70
2022-09-12T16:11:05.770Z,18.54
2022-09-12T16:13:35.811Z,18.38
2022-09-12T16:16:09.039Z,18.25
2022-09-12T16:18:37.368Z,18.35
2022-09-12T16:21:11.324Z,18.50
2022-09-12T16:23:43.671Z,18.46
2022-09-12T16:26:11.866Z,18.70
2022-09-12T16:28:41.576Z,18.42
2022-09-12T16:31:13.803Z,18.47
2022-09-12T16:33:42.281Z,18.53
2022-09-12T16:36:12.143Z,18.38
2022-09-12T16:38:42.832Z,18.47
2022-09-12T16:41:11.701Z,18.46
2022-09-12T16:43:39.967Z,18.44
2022-09-12T16:46:11.436Z,18.24
2022-09-12T16:48:44.429Z,18.30
2022-09-12T16:51:14.630Z,18.03
2022-09-12T16:53:43.112Z,18.07
2022-09-12T16:56:11.291Z,17.94
2022-09-12T16:58:48.199Z,18.03
2022-09-12T17:01:20.180Z,18.00
2022-09-12T17:03:48.721Z,18.19
2022-09-12T17:06:18.966Z,18.12
2022-09-12T17:08:48.846Z,18.09
2022-09-12T17:11:19.329Z,18.09
2022-09-12T17:14:07.879Z,18.34
2022-09-12T17:16:39.539Z,17.88
2022-09-12T17:19:08.660Z,18.17
2022-09-12T17:21:36.643Z,18.19
2022-09-12T17:24:12.375Z,17.88
2022-09-12T17:26:40.666Z,18.00
2022-09-12T17:29:14.737Z,17.52
2022-09-12T17:31:48.153Z,17.88
2022-09-12T17:34:17.592Z,17.61
2022-09-12T17:36:46.221Z,17.61
2022-09-12T17:39:14.752Z,17.95
2022-09-12T17:41:43.225Z,17.92
2022-09-12T17:44:12.900Z,17.81
2022-09-12T17:46:41.588Z,17.98
2022-09-12T17:49:14.839Z,17.93
2022-09-12T17:51:43.740Z,18.10
2022-09-12T17:54:14.152Z,17.74
2022-09-12T17:56:43.524Z,17.93
2022-09-12T17:59:15.823Z,18.10
2022-09-12T18:02:01.846Z,17.96
2022-09-12T18:04:31.312Z,17.98
2022-09-12T18:07:00.440Z,17.95
2022-09-12T18:09:29.160Z,17.91
2022-09-12T18:11:57.602Z,18.04
2022-09-12T18:14:26.276Z,18.11
2022-09-12T18:17:01.794Z,18.05
2022-09-12T18:19:32.134Z,18.06
2022-09-12T18:22:00.111Z,18.02
2022-09-12T18:24:28.699Z,18.13
2022-09-12T18:26:57.590Z,17.75
2022-09-12T18:29:27.693Z,18.18
2022-09-12T18:31:55.701Z,18.15
2022-09-12T18:34:23.749Z,18.05
2022-09-12T18:36:54.946Z,18.02
2022-09-12T18:39:27.317Z,18.16
2022-09-12T18:41:56.358Z,18.36
2022-09-12T18:44:24.326Z,18.25
2022-09-12T18:46:52.848Z,18.28
2022-09-12T18:49:21.092Z,18.01
2022-09-12T18:51:49.117Z,18.11
2022-09-12T18:54:18.812Z,18.45
2022-09-12T18:56:47.639Z,18.37
2022-09-12T18:59:15.742Z,18.11
2022-09-12T19:01:44.272Z,17.64
2022-09-12T19:04:13.637Z,17.90
2022-09-12T19:06:43.781Z,17.87
2022-09-12T19:09:13.148Z,18.37
2022-09-12T19:11:48.816Z,18.08
2022-09-12T19:14:17.719Z,18.14
2022-09-12T19:16:46.266Z,17.82
2022-09-12T19:19:14.218Z,17.78
2022-09-12T19:21:42.876Z,17.84
2022-09-12T19:24:11.412Z,17.86
2022-09-12T19:26:40.176Z,18.02
2022-09-12T19:29:10.232Z,18.20
2022-09-12T19:31:38.371Z,18.30
2022-09-12T19:34:09.337Z,18.17
2022-09-12T19:36:45.489Z,18.43
2022-09-12T19:39:15.311Z,18.27
2022-09-12T19:41:43.857Z,18.07
2022-09-12T19:44:13.277Z,18.34
2022-09-12T19:46:41.751Z,18.30
2022-09-12T19:49:11.973Z,18.32
2022-09-12T19:51:43.922Z,18.39
2022-09-12T19:54:15.714Z,18.28
2022-09-12T19:56:43.800Z,18.41
2022-09-12T19:59:13.278Z,18.43
2022-09-12T20:01:41.474Z,18.18
2022-09-12T20:04:13.748Z,18.00
2022-09-12T20:06:41.781Z,18.10
2022-09-12T20:09:09.772Z,17.82
2022-09-12T20:11:38.161Z,18.10
2022-09-12T20:14:06.208Z,18.08
2022-09-12T20:16:35.600Z,18.27
2022-09-12T20:19:08.333Z,18.12
2022-09-12T20:21:37.771Z,18.10
2022-09-12T20:24:07.658Z,18.20
2022-09-12T20:26:35.995Z,18.09
2022-09-12T20:29:04.785Z,18.05
2022-09-12T20:31:33.472Z,18.16
2022-09-12T20:34:02.986Z,18.10
2022-09-12T20:36:31.009Z,18.15
2022-09-12T20:39:01.283Z,18.35
2022-09-12T20:41:31.614Z,18.17
2022-09-12T20:43:59.925Z,18.36
2022-09-12T20:46:29.272Z,18.36
2022-09-12T20:48:58.470Z,18.35
2022-09-12T20:51:41.928Z,18.22
2022-09-12T20:54:11.334Z,18.10
2022-09-12T20:56:39.385Z,18.19
2022-09-12T20:59:07.633Z,18.25
2022-09-12T21:01:35.718Z,18.21
2022-09-12T21:04:04.487Z,18.36
2022-09-12T21:06:34.063Z,18.25
2022-09-12T21:09:02.059Z,18.10
2022-09-12T21:11:30.352Z,18.12
2022-09-12T21:13:58.965Z,17.96
2022-09-12T21:16:27.322Z,18.12
2022-09-12T21:18:58.844Z,18.21
2022-09-12T21:21:27.562Z,18.02
2022-09-12T21:23:59.911Z,18.04
2022-09-12T21:26:28.339Z,18.08
2022-09-12T21:28:56.409Z,18.10
2022-09-12T21:31:25.412Z,18.16
2022-09-12T21:33:53.453Z,18.01
2022-09-12T21:36:21.552Z,18.16
2022-09-12T21:38:49.524Z,18.23
2022-09-12T21:41:19.463Z,18.14
2022-09-12T21:43:47.508Z,18.13
2022-09-12T21:46:15.567Z,18.01
2022-09-12T21:48:43.987Z,18.17
2022-09-12T21:51:11.926Z,18.12
2022-09-12T21:53:39.948Z,18.12
2022-09-12T21:56:09.920Z,18.01
2022-09-12T21:58:39.432Z,18.05
2022-09-12T22:01:09.576Z,18.15
2022-09-12T22:03:37.830Z,18.17
2022-09-12T22:06:07.816Z,17.91
2022-09-12T22:08:37.593Z,18.07
2022-09-12T22:11:09.496Z,18.03
2022-09-12T22:13:42.707Z,17.70
2022-09-12T22:16:11.619Z,17.61
2022-09-12T22:18:40.110Z,18.23
2022-09-12T22:21:12.337Z,18.30
2022-09-12T22:23:58.344Z,17.98
2022-09-12T22:26:27.054Z,18.10
2022-09-12T22:28:57.138Z,18.15
2022-09-12T22:31:27.019Z,18.06
2022-09-12T22:33:57.102Z,18.39
2022-09-12T22:36:30.514Z,18.21
2022-09-12T22:38:59.527Z,18.18
2022-09-12T22:41:27.497Z,18.04
2022-09-12T22:43:57.596Z,18.08
2022-09-12T22:46:28.149Z,18.05
2022-09-12T22:48:56.659Z,17.98
2022-09-12T22:51:24.673Z,18.01
2022-09-12T22:53:53.039Z,18.20
2022-09-12T22:56:21.159Z,18.16
2022-09-12T22:58:49.423Z,18.06
2022-09-12T23:01:19.046Z,18.13
2022-09-12T23:03:47.140Z,18.11
2022-09-12T23:06:15.241Z,17.86
2022-09-12T23:08:43.630Z,17.95
2022-09-12T23:11:13.984Z,17.80
2022-09-12T23:13:43.983Z,17.91
2022-09-12T23:16:17.088Z,17.97
2022-09-12T23:18:47.006Z,18.07
2022-09-12T23:21:16.668Z,17.79
2022-09-12T23:23:44.936Z,17.57
2022-09-12T23:26:17.242Z,17.64
2022-09-12T23:28:50.029Z,17.71
2022-09-12T23:31:18.925Z,17.77
2022-09-12T23:33:50.008Z,17.94
2022-09-12T23:36:17.989Z,17.82
2022-09-12T23:38:47.861Z,17.43
2022-09-12T23:41:17.347Z,17.28
2022-09-12T23:43:45.635Z,17.67
2022-09-12T23:46:14.608Z,18.01
2022-09-12T23:48:43.276Z,17.97
2022-09-12T23:51:13.361Z,18.07
2022-09-12T23:53:41.394Z,18.01
2022-09-12T23:56:09.575Z,18.06
2022-09-12T23:58:37.885Z,18.14
